Time;durP1;ratioP1;P1;durP2;ratioP2;P2;SDS_P1;SDS_P2;PMS_P1;PMS_P2;Temp;Humidity;BMP_temperature;BMP_pressure;BME280_temperature;BME280_humidity;BME280_pressure;Samples;Min_cycle;Max_cycle;Signal;HPM_P1;HPM_P2
2023/10/11 00:05:42;;;;;;;;;;;;;;;10.00;75.32;101128.29;105549;1263;125460;-77
2023/10/11 00:08:12;;;;;;;;;;;;;;;10.00;75.39;101124.77;105530;1259;75456;-78
2023/10/11 00:10:53;;;;;;;;;;;;;;;9.98;75.62;101124.90;105724;1260;66863;-77
2023/10/11 00:13:23;;;;;;;;;;;;;;;9.98;75.72;101122.27;105666;1268;71994;-77
2023/10/11 00:15:50;;;;;;;;;;;;;;;9.99;75.88;101123.68;105799;1261;62173;-77
2023/10/11 00:18:26;;;;;;;;;;;;;;;9.98;76.03;101113.85;105592;1264;124864;-77
2023/10/11 00:20:57;;;;;;;;;;;;;;;9.99;76.17;101108.44;105736;1264;75518;-77
2023/10/11 00:23:24;;;;;;;;;;;;;;;9.99;76.37;101107.05;105714;1258;124404;-77
2023/10/11 00:25:52;;;;;;;;;;;;;;;10.00;76.49;101108.13;105701;1261;72416;-77
2023/10/11 00:28:23;;;;;;;;;;;;;;;10.01;76.59;101093.61;105957;1262;61968;-77
2023/10/11 00:30:57;;;;;;;;;;;;;;;10.03;76.73;101092.45;105571;1261;125002;-76
2023/10/11 00:33:24;;;;;;;;;;;;;;;10.06;76.91;101094.83;105825;1262;75479;-77
2023/10/11 00:35:50;;;;;;;;;;;;;;;10.08;76.97;101089.48;105616;1259;125479;-77
2023/10/11 00:38:20;;;;;;;;;;;;;;;10.12;77.19;101086.77;105756;1261;71423;-77
2023/10/11 00:43:41;;;;;;;;;;;;;;;10.21;77.36;101079.54;105714;1263;62072;-77
2023/10/11 00:46:13;;;;;;;;;;;;;;;10.25;77.50;101070.34;105834;1259;75533;-77
2023/10/11 00:51:43;;;;;;;;;;;;;;;10.37;77.70;101067.94;105463;1270;72803;-77
2023/10/11 00:54:15;;;;;;;;;;;;;;;10.42;77.75;101065.12;105628;1260;125129;-76
2023/10/11 00:56:43;;;;;;;;;;;;;;;10.45;77.78;101065.74;105672;1259;61977;-77
2023/10/11 00:59:10;;;;;;;;;;;;;;;10.49;77.93;101062.00;105590;1261;125437;-77
2023/10/11 01:01:37;;;;;;;;;;;;;;;10.53;77.93;101060.71;105692;1263;64562;-77
2023/10/11 01:04:04;;;;;;;;;;;;;;;10.57;78.03;101056.83;105745;1260;72716;-77
2023/10/11 01:06:34;;;;;;;;;;;;;;;10.62;78.02;101058.70;105601;1260;125168;-77
2023/10/11 01:09:04;;;;;;;;;;;;;;;10.65;78.03;101052.83;105732;1261;61983;-77
2023/10/11 01:11:30;;;;;;;;;;;;;;;10.69;78.07;101056.80;105734;1261;125799;-78
2023/10/11 01:13:58;;;;;;;;;;;;;;;10.73;78.21;101055.88;105737;1263;65567;-77
2023/10/11 01:16:26;;;;;;;;;;;;;;;10.76;78.17;101049.46;105727;1261;73451;-78
2023/10/11 01:18:52;;;;;;;;;;;;;;;10.80;78.20;101043.77;105674;1262;125445;-77
2023/10/11 01:21:19;;;;;;;;;;;;;;;10.82;78.23;101044.56;105897;1263;62076;-77
2023/10/11 01:23:46;;;;;;;;;;;;;;;10.84;78.20;101037.25;105545;1260;125284;-77
2023/10/11 01:26:12;;;;;;;;;;;;;;;10.88;78.28;101036.64;105757;1262;65012;-76
2023/10/11 01:28:40;;;;;;;;;;;;;;;10.90;78.28;101036.01;105948;1259;72705;-77
2023/10/11 01:31:10;;;;;;;;;;;;;;;10.93;78.34;101028.18;107988;1260;124960;-77
2023/10/11 01:33:37;;;;;;;;;;;;;;;10.97;78.30;101021.98;105732;1260;60310;-77
2023/10/11 01:36:05;;;;;;;;;;;;;;;10.99;78.35;101012.88;105536;1264;125884;-77
2023/10/11 01:38:33;;;;;;;;;;;;;;;11.01;78.40;101005.91;105798;1261;64987;-78
2023/10/11 01:40:59;;;;;;;;;;;;;;;11.01;78.29;101009.79;105737;1260;125363;-77
2023/10/11 01:43:26;;;;;;;;;;;;;;;11.01;78.45;101010.48;105826;1260;62650;-77
2023/10/11 01:45:52;;;;;;;;;;;;;;;11.02;78.52;101003.50;105889;1262;62072;-77
2023/10/11 01:48:19;;;;;;;;;;;;;;;11.04;78.52;101003.91;105769;1260;125161;-77
2023/10/11 01:50:47;;;;;;;;;;;;;;;11.07;78.53;101008.91;105668;1266;62180;-77
2023/10/11 01:53:14;;;;;;;;;;;;;;;11.09;78.69;101014.57;105653;1261;125468;-77
2023/10/11 01:55:41;;;;;;;;;;;;;;;11.11;78.62;101016.89;105808;1259;60848;-77
2023/10/11 01:58:12;;;;;;;;;;;;;;;11.12;78.67;101006.40;105837;1261;62168;-76
2023/10/11 02:00:39;;;;;;;;;;;;;;;11.13;78.69;101006.08;105637;1257;125406;-78
2023/10/11 02:03:12;;;;;;;;;;;;;;;11.14;78.73;100997.84;105596;1261;66084;-78
2023/10/11 02:05:39;;;;;;;;;;;;;;;11.17;78.79;100992.65;105648;1260;125310;-77
2023/10/11 02:08:14;;;;;;;;;;;;;;;11.16;78.76;100989.10;105819;1260;62056;-77
2023/10/11 02:10:41;;;;;;;;;;;;;;;11.17;78.80;100980.18;105861;1259;62060;-77
2023/10/11 02:13:09;;;;;;;;;;;;;;;11.18;78.85;100977.21;105668;1261;124886;-77
2023/10/11 02:15:37;;;;;;;;;;;;;;;11.20;78.99;100968.13;105790;1260;64775;-76
2023/10/11 02:18:08;;;;;;;;;;;;;;;11.20;78.97;100963.05;105734;1259;125111;-77
2023/10/11 02:20:35;;;;;;;;;;;;;;;11.21;79.08;100961.33;105835;1262;62071;-76
2023/10/11 02:23:02;;;;;;;;;;;;;;;11.23;79.13;100956.98;105784;1262;125473;-77
2023/10/11 02:25:28;;;;;;;;;;;;;;;11.23;79.20;100948.71;105835;1263;76145;-78
2023/10/11 02:27:55;;;;;;;;;;;;;;;11.24;79.23;100942.08;105710;1263;66270;-77
2023/10/11 02:30:24;;;;;;;;;;;;;;;11.25;79.28;100938.77;105783;1260;125241;-76
2023/10/11 02:32:51;;;;;;;;;;;;;;;11.27;79.35;100931.78;108845;1259;60073;-76
2023/10/11 02:35:18;;;;;;;;;;;;;;;11.28;79.36;100923.91;107414;1259;125468;-77
2023/10/11 02:37:45;;;;;;;;;;;;;;;11.28;79.41;100925.13;105802;1262;74194;-77
2023/10/11 02:40:16;;;;;;;;;;;;;;;11.31;79.58;100928.02;105870;1262;66281;-77
2023/10/11 02:42:44;;;;;;;;;;;;;;;11.36;79.60;100929.17;105689;1260;126093;-77
2023/10/11 02:45:12;;;;;;;;;;;;;;;11.38;79.64;100921.86;105760;1262;62156;-77
2023/10/11 02:47:40;;;;;;;;;;;;;;;11.41;79.71;100919.13;105617;1260;125232;-77
2023/10/11 02:50:07;;;;;;;;;;;;;;;11.44;79.80;100917.45;105743;1263;73485;-77
2023/10/11 02:52:36;;;;;;;;;;;;;;;11.50;79.85;100914.94;105735;1262;66327;-77
2023/10/11 02:57:46;;;;;;;;;;;;;;;11.56;79.89;100900.32;105724;1260;61968;-76
2023/10/11 03:00:21;;;;;;;;;;;;;;;11.59;79.91;100903.20;105599;1259;125400;-77
2023/10/11 03:02:54;;;;;;;;;;;;;;;11.61;79.93;100900.98;105678;1257;72858;-78
2023/10/11 03:05:29;;;;;;;;;;;;;;;11.63;80.01;100904.36;105526;1260;125267;-77
2023/10/11 03:08:12;;;;;;;;;;;;;;;11.67;80.09;100900.74;108837;1260;72753;-77
2023/10/11 03:10:56;;;;;;;;;;;;;;;11.70;80.04;100894.14;108924;1257;60027;-78
2023/10/11 03:13:29;;;;;;;;;;;;;;;11.74;80.14;100884.20;108911;1258;59786;-78
2023/10/11 03:15:56;;;;;;;;;;;;;;;11.77;80.14;100873.54;108899;1259;75609;-78
2023/10/11 03:18:26;;;;;;;;;;;;;;;11.79;80.15;100869.19;108702;1260;126302;-78
2023/10/11 03:21:08;;;;;;;;;;;;;;;11.83;80.18;100862.59;108858;1259;71955;-78
2023/10/11 03:23:42;;;;;;;;;;;;;;;11.88;80.24;100852.67;105982;1259;125975;-76
2023/10/11 03:29:04;;;;;;;;;;;;;;;11.93;80.40;100842.98;105617;1259;125800;-78
2023/10/11 03:31:31;;;;;;;;;;;;;;;11.95;80.48;100838.27;105690;1264;67308;-79
2023/10/11 03:33:59;;;;;;;;;;;;;;;11.98;80.68;100836.58;107683;1259;71524;-79
2023/10/11 03:36:35;;;;;;;;;;;;;;;12.03;80.66;100833.67;106353;1259;125077;-78
2023/10/11 03:39:09;;;;;;;;;;;;;;;12.05;80.87;100827.93;106267;1260;62082;-78
2023/10/11 03:41:36;;;;;;;;;;;;;;;12.09;80.85;100819.73;106732;1259;125440;-81
2023/10/11 03:44:16;;;;;;;;;;;;;;;12.14;81.03;100812.79;106258;1260;64474;-81
2023/10/11 03:46:47;;;;;;;;;;;;;;;12.19;81.16;100807.97;106342;1262;72737;-82
2023/10/11 03:49:36;;;;;;;;;;;;;;;12.23;81.23;100806.47;106145;1259;125934;-83
2023/10/11 03:52:00;;;;;;;;;;;;;;;12.29;81.25;100801.30;106496;1258;62079;-84
2023/10/11 03:54:27;;;;;;;;;;;;;;;12.31;81.29;100797.98;106240;1260;125101;-85
2023/10/11 03:56:54;;;;;;;;;;;;;;;12.35;81.41;100797.70;106525;1263;64626;-84
2023/10/11 03:59:21;;;;;;;;;;;;;;;12.38;81.54;100802.70;106397;1258;125317;-85
2023/10/11 04:01:49;;;;;;;;;;;;;;;12.42;81.55;100797.84;106520;1258;62089;-77
2023/10/11 04:04:16;;;;;;;;;;;;;;;12.47;81.66;100792.29;105763;1259;62174;-77
2023/10/11 04:06:50;;;;;;;;;;;;;;;12.50;81.67;100776.68;105518;1263;125606;-77
2023/10/11 04:09:37;;;;;;;;;;;;;;;12.53;81.70;100766.88;105760;1260;65017;-78
2023/10/11 04:12:04;;;;;;;;;;;;;;;12.56;81.72;100772.38;106434;1263;125862;-78
2023/10/11 04:14:40;;;;;;;;;;;;;;;12.59;81.95;100772.42;106197;1260;60170;-78
2023/10/11 04:17:07;;;;;;;;;;;;;;;12.60;81.77;100768.59;106207;1262;126095;-79
2023/10/11 04:19:35;;;;;;;;;;;;;;;12.62;81.89;100761.39;106257;1259;75448;-78
2023/10/11 04:22:12;;;;;;;;;;;;;;;12.65;81.90;100753.54;106375;1259;66240;-78
2023/10/11 04:24:40;;;;;;;;;;;;;;;12.67;81.90;100751.95;105619;1260;125255;-78
2023/10/11 04:27:45;;;;;;;;;;;;;;;12.68;81.96;100754.10;107977;1259;60289;-77
2023/10/11 04:30:17;;;;;;;;;;;;;;;12.72;82.07;100752.23;105583;1258;126017;-77
2023/10/11 04:32:46;;;;;;;;;;;;;;;12.73;82.10;100743.45;105678;1260;74429;-77
2023/10/11 04:35:21;;;;;;;;;;;;;;;12.77;82.21;100729.60;105605;1258;125862;-77
2023/10/11 04:37:54;;;;;;;;;;;;;;;12.80;82.23;100720.84;105754;1258;73063;-78
2023/10/11 04:40:23;;;;;;;;;;;;;;;12.83;82.28;100713.33;105922;1261;62046;-78
2023/10/11 04:43:04;;;;;;;;;;;;;;;12.87;82.27;100709.33;106698;1260;125728;-80
2023/10/11 04:45:46;;;;;;;;;;;;;;;12.89;82.29;100711.46;105653;1259;74234;-77
2023/10/11 04:48:19;;;;;;;;;;;;;;;12.90;82.38;100714.83;105643;1259;126475;-78
2023/10/11 04:50:47;;;;;;;;;;;;;;;12.93;82.29;100717.16;105649;1263;71360;-78
2023/10/11 04:53:17;;;;;;;;;;;;;;;12.94;82.42;100714.17;105519;1260;125422;-79
2023/10/11 04:55:47;;;;;;;;;;;;;;;12.97;82.40;100709.29;105761;1259;62047;-79
2023/10/11 04:58:40;;;;;;;;;;;;;;;12.99;82.42;100704.21;108909;1259;75510;-78
2023/10/11 05:01:08;;;;;;;;;;;;;;;13.02;82.34;100704.77;105638;1259;125185;-79
2023/10/11 05:03:37;;;;;;;;;;;;;;;13.01;82.32;100703.19;105684;1262;71830;-80
2023/10/11 05:06:13;;;;;;;;;;;;;;;13.03;82.45;100699.69;108804;1258;126213;-77
2023/10/11 05:08:52;;;;;;;;;;;;;;;13.06;82.48;100701.67;106487;1260;62064;-77
2023/10/11 05:11:39;;;;;;;;;;;;;;;13.09;82.48;100700.13;105684;1259;125660;-77
2023/10/11 05:16:51;;;;;;;;;;;;;;;13.14;82.50;100688.75;105605;1262;125780;-80
2023/10/11 05:19:20;;;;;;;;;;;;;;;13.16;82.50;100679.08;105666;1259;62151;-77
2023/10/11 05:21:52;;;;;;;;;;;;;;;13.18;82.48;100676.98;105703;1260;61968;-78
2023/10/11 05:27:36;;;;;;;;;;;;;;;13.25;82.51;100669.86;105810;1259;66339;-78
2023/10/11 05:51:56;;;;;;;;;;;;;;;13.44;82.51;100626.23;105407;1269;75521;-78
2023/10/11 05:54:33;;;;;;;;;;;;;;;13.47;82.57;100623.45;105381;1264;125577;-78
2023/10/11 05:57:03;;;;;;;;;;;;;;;13.49;82.57;100622.59;105538;1266;73599;-78
2023/10/11 05:59:32;;;;;;;;;;;;;;;13.52;82.60;100623.66;105379;1265;125631;-78
2023/10/11 06:01:59;;;;;;;;;;;;;;;13.54;82.57;100628.10;108209;1263;60368;-78
2023/10/11 06:04:26;;;;;;;;;;;;;;;13.55;82.51;100625.65;107718;1263;74664;-78
2023/10/11 06:06:57;;;;;;;;;;;;;;;13.59;82.59;100615.46;105368;1260;125724;-78
2023/10/11 06:09:27;;;;;;;;;;;;;;;13.64;82.61;100612.34;105753;1259;72707;-78
2023/10/11 06:11:54;;;;;;;;;;;;;;;13.68;82.56;100609.91;105639;1260;125267;-79
2023/10/11 06:14:21;;;;;;;;;;;;;;;13.72;82.61;100604.83;105719;1260;62002;-78
2023/10/11 06:17:05;;;;;;;;;;;;;;;13.76;82.59;100607.54;106456;1262;74155;-79
2023/10/11 06:19:32;;;;;;;;;;;;;;;13.81;82.53;100607.94;106285;1258;64078;-78
2023/10/11 06:21:59;;;;;;;;;;;;;;;13.87;82.51;100606.39;105796;1262;71035;-78
2023/10/11 06:24:25;;;;;;;;;;;;;;;13.92;82.64;100605.90;105691;1260;125700;-79
2023/10/11 06:26:52;;;;;;;;;;;;;;;13.97;82.44;100609.48;105809;1262;62056;-78
2023/10/11 06:29:28;;;;;;;;;;;;;;;14.02;82.44;100607.75;108836;1258;125235;-78
2023/10/11 06:31:56;;;;;;;;;;;;;;;14.07;82.42;100608.50;105924;1262;64780;-78
2023/10/11 06:34:26;;;;;;;;;;;;;;;14.12;82.30;100606.79;105729;1262;62887;-78
2023/10/11 06:36:53;;;;;;;;;;;;;;;14.17;82.23;100611.77;105715;1259;125288;-78
2023/10/11 06:42:31;;;;;;;;;;;;;;;14.28;82.15;100612.20;105248;1260;125129;-78
2023/10/11 06:44:58;;;;;;;;;;;;;;;14.34;82.12;100609.08;105785;1263;66138;-78
2023/10/11 06:47:25;;;;;;;;;;;;;;;14.40;82.05;100603.64;105735;1257;125938;-78
2023/10/11 06:49:55;;;;;;;;;;;;;;;14.48;82.02;100608.98;105877;1259;61970;-77
2023/10/11 06:52:25;;;;;;;;;;;;;;;14.54;82.01;100604.10;105937;1257;62133;-79
2023/10/11 06:55:08;;;;;;;;;;;;;;;14.63;81.92;100599.05;105898;1260;125613;-79
2023/10/11 06:57:39;;;;;;;;;;;;;;;14.71;81.78;100595.39;105918;1257;65017;-80
2023/10/11 07:00:12;;;;;;;;;;;;;;;14.81;81.81;100586.08;106375;1257;125551;-78
2023/10/11 07:02:46;;;;;;;;;;;;;;;14.88;81.68;100584.35;108942;1257;59888;-77
2023/10/11 07:05:17;;;;;;;;;;;;;;;14.95;81.54;100583.14;108804;1258;125416;-78
2023/10/11 07:07:52;;;;;;;;;;;;;;;15.02;81.36;100581.95;108776;1259;74266;-78
2023/10/11 07:10:34;;;;;;;;;;;;;;;15.08;81.24;100573.13;105878;1257;65578;-77
2023/10/11 07:13:04;;;;;;;;;;;;;;;15.14;81.13;100562.73;105730;1261;125089;-79
2023/10/11 07:15:43;;;;;;;;;;;;;;;15.21;81.04;100555.33;106381;1257;60267;-78
2023/10/11 07:18:10;;;;;;;;;;;;;;;15.29;81.00;100553.04;105668;1257;125315;-79
2023/10/11 07:20:58;;;;;;;;;;;;;;;15.35;80.75;100547.57;106398;1260;74451;-78
2023/10/11 07:23:34;;;;;;;;;;;;;;;15.43;80.66;100546.88;105581;1258;126100;-79
2023/10/11 07:26:23;;;;;;;;;;;;;;;15.48;80.49;100544.41;105742;1261;73117;-78
2023/10/11 07:28:52;;;;;;;;;;;;;;;15.56;80.41;100540.36;105838;1261;62051;-78
2023/10/11 07:31:19;;;;;;;;;;;;;;;15.64;80.40;100535.77;108784;1259;125486;-79
2023/10/11 07:33:55;;;;;;;;;;;;;;;15.71;80.09;100535.05;108974;1258;75405;-83
2023/10/11 07:36:22;;;;;;;;;;;;;;;15.77;79.97;100532.09;106329;1259;125311;-76
2023/10/11 07:38:54;;;;;;;;;;;;;;;15.82;79.72;100530.86;105715;1261;72416;-87
2023/10/11 07:41:27;;;;;;;;;;;;;;;15.90;79.74;100527.84;106267;1260;125642;-78
2023/10/11 07:43:57;;;;;;;;;;;;;;;15.96;79.60;100523.41;108859;1259;60138;-79
2023/10/11 07:46:24;;;;;;;;;;;;;;;16.01;79.39;100522.17;108913;1257;75506;-79
2023/10/11 07:48:57;;;;;;;;;;;;;;;16.04;79.26;100522.70;106861;1262;125068;-78
2023/10/11 07:51:25;;;;;;;;;;;;;;;16.11;79.15;100521.81;105757;1260;72583;-77
2023/10/11 07:53:52;;;;;;;;;;;;;;;16.13;78.97;100509.42;105770;1260;125152;-78
2023/10/11 07:56:20;;;;;;;;;;;;;;;16.18;79.00;100503.92;105697;1260;62054;-78
2023/10/11 07:58:47;;;;;;;;;;;;;;;16.25;78.93;100493.27;108781;1258;75279;-78
2023/10/11 08:01:30;;;;;;;;;;;;;;;16.33;78.77;100492.91;108794;1260;125174;-78
2023/10/11 08:03:57;;;;;;;;;;;;;;;16.40;78.58;100485.98;108872;1258;71927;-78
2023/10/11 08:06:24;;;;;;;;;;;;;;;16.47;78.43;100484.73;108788;1259;125507;-78
2023/10/11 08:09:00;;;;;;;;;;;;;;;16.58;78.30;100481.67;108803;1260;60140;-79
2023/10/11 08:11:28;;;;;;;;;;;;;;;16.66;78.13;100482.34;108725;1261;125824;-79
2023/10/11 08:14:00;;;;;;;;;;;;;;;16.74;77.97;100487.44;108942;1259;66300;-79
2023/10/11 08:16:28;;;;;;;;;;;;;;;16.82;77.80;100484.05;108905;1259;72787;-79
2023/10/11 08:18:55;;;;;;;;;;;;;;;16.91;77.61;100477.11;108724;1258;125424;-80
2023/10/11 08:21:22;;;;;;;;;;;;;;;16.97;77.45;100474.77;107267;1258;62086;-79
2023/10/11 08:23:50;;;;;;;;;;;;;;;17.04;77.24;100463.39;105681;1262;125871;-79
2023/10/11 08:26:18;;;;;;;;;;;;;;;17.11;77.11;100466.89;105728;1262;65929;-79
2023/10/11 08:28:51;;;;;;;;;;;;;;;17.17;76.91;100469.87;105793;1261;72799;-79
2023/10/11 08:34:04;;;;;;;;;;;;;;;17.25;76.42;100459.16;106275;1262;61950;-79
2023/10/11 08:36:33;;;;;;;;;;;;;;;17.27;76.31;100457.73;106078;1258;126808;-79
2023/10/11 08:39:05;;;;;;;;;;;;;;;17.33;76.35;100453.61;106426;1260;64835;-79
2023/10/11 08:41:33;;;;;;;;;;;;;;;17.39;75.95;100450.02;106239;1262;124841;-79
2023/10/11 08:44:15;;;;;;;;;;;;;;;17.45;75.95;100447.49;106290;1259;62010;-79
2023/10/11 08:46:45;;;;;;;;;;;;;;;17.56;75.88;100450.08;106447;1259;61966;-79
2023/10/11 08:49:14;;;;;;;;;;;;;;;17.66;75.76;100448.20;106255;1259;126857;-79
2023/10/11 08:51:41;;;;;;;;;;;;;;;17.78;75.49;100445.08;106320;1258;65990;-77
2023/10/11 08:54:25;;;;;;;;;;;;;;;17.90;75.29;100440.56;105590;1259;125416;-78
2023/10/11 08:56:54;;;;;;;;;;;;;;;17.98;74.93;100428.21;105629;1258;60641;-81
2023/10/11 08:59:25;;;;;;;;;;;;;;;18.03;74.68;100422.14;105459;1260;125377;-79
2023/10/11 09:01:52;;;;;;;;;;;;;;;18.07;74.40;100424.23;105590;1260;75201;-78
2023/10/11 09:04:19;;;;;;;;;;;;;;;18.09;74.24;100426.69;105751;1260;66335;-78
2023/10/11 09:06:45;;;;;;;;;;;;;;;18.12;74.01;100422.39;106431;1258;125399;-79
2023/10/11 09:09:32;;;;;;;;;;;;;;;18.13;73.79;100420.60;106381;1259;61989;-79
2023/10/11 09:11:59;;;;;;;;;;;;;;;18.14;73.44;100413.48;106281;1263;124946;-79
2023/10/11 09:14:29;;;;;;;;;;;;;;;18.14;73.16;100411.89;106443;1262;73682;-79
2023/10/11 09:17:02;;;;;;;;;;;;;;;18.16;73.12;100411.16;106334;1260;66399;-79
2023/10/11 09:19:32;;;;;;;;;;;;;;;18.16;72.90;100403.88;106238;1258;180210;-79
2023/10/11 09:22:03;;;;;;;;;;;;;;;18.18;72.83;100397.46;106364;1258;62192;-79
2023/10/11 09:24:38;;;;;;;;;;;;;;;18.21;72.75;100389.07;106362;1258;124506;-79
2023/10/11 09:29:48;;;;;;;;;;;;;;;18.34;72.57;100381.28;106250;1259;125019;-79
2023/10/11 09:32:27;;;;;;;;;;;;;;;18.40;72.31;100375.34;106417;1264;72160;-79
2023/10/11 09:34:56;;;;;;;;;;;;;;;18.42;72.00;100369.45;106623;1259;62605;-79
2023/10/11 09:37:23;;;;;;;;;;;;;;;18.46;71.84;100374.55;106513;1260;62061;-79
2023/10/11 09:39:53;;;;;;;;;;;;;;;18.46;71.56;100369.77;106460;1260;75501;-78
2023/10/11 09:42:22;;;;;;;;;;;;;;;18.43;71.39;100364.27;107404;1260;125416;-78
2023/10/11 09:44:49;;;;;;;;;;;;;;;18.41;71.12;100364.67;106287;1262;71866;-78
2023/10/11 09:47:16;;;;;;;;;;;;;;;18.40;71.12;100364.15;105760;1260;125755;-79
2023/10/11 09:49:43;;;;;;;;;;;;;;;18.41;71.15;100369.46;105830;1260;62148;-79
2023/10/11 09:52:16;;;;;;;;;;;;;;;18.44;70.96;100365.88;105923;1260;75513;-79
2023/10/11 09:54:42;;;;;;;;;;;;;;;18.47;70.98;100356.94;105822;1260;124753;-80
2023/10/11 09:57:50;;;;;;;;;;;;;;;18.55;70.79;100348.48;106489;1264;72785;-78
2023/10/11 10:00:18;;;;;;;;;;;;;;;18.69;70.79;100351.83;105162;1267;125213;-78
2023/10/11 10:02:48;;;;;;;;;;;;;;;18.81;70.59;100354.52;105304;1270;62088;-77
2023/10/11 10:05:16;;;;;;;;;;;;;;;18.90;70.36;100358.30;105147;1267;125452;-79
2023/10/11 10:07:45;;;;;;;;;;;;;;;18.95;70.21;100360.00;105251;1270;65275;-78
2023/10/11 10:10:13;;;;;;;;;;;;;;;19.01;70.03;100354.03;105199;1268;71767;-78
2023/10/11 10:12:43;;;;;;;;;;;;;;;19.05;69.80;100351.48;105180;1266;125153;-78
2023/10/11 10:15:13;;;;;;;;;;;;;;;19.08;69.62;100352.86;105265;1266;62466;-79
2023/10/11 10:17:56;;;;;;;;;;;;;;;19.10;69.43;100358.00;105180;1268;125683;-78
2023/10/11 10:23:16;;;;;;;;;;;;;;;19.20;69.40;100378.81;105141;1269;126306;-79
2023/10/11 10:25:46;;;;;;;;;;;;;;;19.31;69.34;100386.09;105162;1265;62257;-79
2023/10/11 10:29:07;;;;;;;;;;;;;;;19.42;69.13;100375.23;105813;1267;61996;-80
2023/10/11 10:31:25;;;;;;;;;;;;;;;19.61;69.00;100369.73;105920;1269;74575;-77
2023/10/11 10:34:04;;;;;;;;;;;;;;;19.79;69.01;100358.05;105200;1258;65038;-79
2023/10/11 10:36:31;;;;;;;;;;;;;;;19.97;68.65;100356.43;105638;1259;124413;-80
2023/10/11 10:39:01;;;;;;;;;;;;;;;20.16;68.52;100349.66;105740;1260;62145;-78
2023/10/11 10:41:30;;;;;;;;;;;;;;;20.32;68.16;100349.85;105673;1258;124898;-77
2023/10/11 10:44:04;;;;;;;;;;;;;;;20.42;67.76;100349.27;105765;1259;75463;-76
2023/10/11 10:46:31;;;;;;;;;;;;;;;20.48;67.39;100342.21;105833;1260;65241;-79
2023/10/11 10:48:57;;;;;;;;;;;;;;;20.50;67.15;100339.27;105560;1258;124771;-78
2023/10/11 10:51:27;;;;;;;;;;;;;;;20.55;66.90;100334.73;105703;1262;61923;-78
2023/10/11 10:53:54;;;;;;;;;;;;;;;20.57;66.66;100337.53;105657;1260;124746;-78
2023/10/11 10:56:21;;;;;;;;;;;;;;;20.62;66.62;100338.51;105693;1260;62124;-79
2023/10/11 10:58:47;;;;;;;;;;;;;;;20.70;66.44;100341.19;105902;1260;65082;-78
2023/10/11 11:01:24;;;;;;;;;;;;;;;20.77;66.28;100335.31;105740;1259;125574;-79
2023/10/11 11:03:56;;;;;;;;;;;;;;;20.87;66.24;100338.64;106259;1260;62112;-79
2023/10/11 11:06:23;;;;;;;;;;;;;;;20.95;65.85;100339.34;105957;1260;124575;-78
2023/10/11 11:08:50;;;;;;;;;;;;;;;21.02;65.73;100342.02;105777;1259;75457;-78
2023/10/11 11:11:25;;;;;;;;;;;;;;;21.10;65.73;100345.21;105611;1260;125241;-79
2023/10/11 11:13:52;;;;;;;;;;;;;;;21.18;65.51;100345.92;105692;1261;71840;-77
2023/10/11 11:16:19;;;;;;;;;;;;;;;21.20;65.15;100345.34;105779;1260;62093;-78
2023/10/11 11:18:47;;;;;;;;;;;;;;;21.19;64.98;100341.26;105641;1262;124541;-78
2023/10/11 11:21:21;;;;;;;;;;;;;;;21.18;64.77;100343.06;105700;1260;74192;-78
2023/10/11 11:23:51;;;;;;;;;;;;;;;21.12;64.47;100338.91;105644;1262;125127;-78
2023/10/11 11:26:21;;;;;;;;;;;;;;;21.09;64.44;100345.06;105625;1260;71677;-80
2023/10/11 11:28:48;;;;;;;;;;;;;;;21.07;64.37;100342.08;105760;1262;62051;-77
2023/10/11 11:31:51;;;;;;;;;;;;;;;21.04;64.09;100331.45;105704;1260;124332;-77
2023/10/11 11:34:11;;;;;;;;;;;;;;;20.96;63.90;100322.90;106435;1258;75516;-78
2023/10/11 11:36:40;;;;;;;;;;;;;;;20.91;64.03;100315.17;105756;1262;124515;-79
2023/10/11 11:42:07;;;;;;;;;;;;;;;21.02;64.11;100319.73;105427;1260;124550;-78
2023/10/11 11:44:34;;;;;;;;;;;;;;;21.13;64.12;100325.52;105722;1262;62417;-77
2023/10/11 11:47:05;;;;;;;;;;;;;;;21.24;63.95;100320.78;105749;1260;124667;-77
2023/10/11 11:49:35;;;;;;;;;;;;;;;21.36;63.93;100321.01;106057;1260;66243;-73
2023/10/11 11:52:01;;;;;;;;;;;;;;;21.48;63.65;100323.38;105970;1259;72527;-73
2023/10/11 11:54:28;;;;;;;;;;;;;;;21.58;63.49;100322.06;105764;1260;124519;-74
2023/10/11 11:56:55;;;;;;;;;;;;;;;21.63;63.30;100318.53;105714;1260;62271;-77
2023/10/11 11:59:22;;;;;;;;;;;;;;;21.65;63.10;100310.45;108654;1261;124645;-77
2023/10/11 12:01:52;;;;;;;;;;;;;;;21.66;63.08;100303.44;105734;1262;66318;-77
2023/10/11 12:04:32;;;;;;;;;;;;;;;21.69;63.06;100301.39;106387;1258;72799;-77
2023/10/11 12:06:59;;;;;;;;;;;;;;;21.71;63.04;100301.50;105939;1259;125123;-77
2023/10/11 12:09:33;;;;;;;;;;;;;;;21.71;62.90;100306.51;106030;1262;62795;-76
2023/10/11 12:12:04;;;;;;;;;;;;;;;21.73;62.72;100305.56;105748;1260;124465;-78
2023/10/11 12:14:31;;;;;;;;;;;;;;;21.75;62.55;100308.02;105927;1259;64848;-77
2023/10/11 12:16:58;;;;;;;;;;;;;;;21.75;62.19;100302.64;105969;1259;124683;-77
2023/10/11 12:19:28;;;;;;;;;;;;;;;21.71;62.14;100288.14;106023;1260;62098;-76
2023/10/11 12:21:57;;;;;;;;;;;;;;;21.67;62.05;100285.40;105981;1262;62135;-77
2023/10/11 12:24:24;;;;;;;;;;;;;;;21.60;61.78;100282.18;105690;1260;124629;-76
2023/10/11 12:26:51;;;;;;;;;;;;;;;21.57;61.85;100295.30;105957;1259;66034;-77
2023/10/11 12:29:18;;;;;;;;;;;;;;;21.56;61.98;100298.37;105716;1265;125531;-78
2023/10/11 12:31:45;;;;;;;;;;;;;;;21.53;61.88;100304.50;105921;1260;62076;-77
2023/10/11 12:34:11;;;;;;;;;;;;;;;21.53;61.75;100298.45;105781;1259;62168;-77
2023/10/11 12:36:39;;;;;;;;;;;;;;;21.50;61.70;100305.85;105628;1259;124822;-77
2023/10/11 12:39:06;;;;;;;;;;;;;;;21.48;61.70;100302.15;105783;1260;63971;-77
2023/10/11 12:41:33;;;;;;;;;;;;;;;21.48;61.67;100307.15;105599;1259;124908;-78
2023/10/11 12:44:00;;;;;;;;;;;;;;;21.44;61.67;100308.83;105694;1259;62169;-78
2023/10/11 12:46:28;;;;;;;;;;;;;;;21.40;61.59;100303.05;105715;1262;62137;-77
2023/10/11 12:48:57;;;;;;;;;;;;;;;21.39;61.70;100302.73;105766;1262;124708;-77
2023/10/11 12:51:24;;;;;;;;;;;;;;;21.38;61.51;100302.02;105784;1258;64961;-79
2023/10/11 12:54:00;;;;;;;;;;;;;;;21.37;61.39;100306.35;105513;1259;124678;-77
2023/10/11 12:56:27;;;;;;;;;;;;;;;21.37;61.41;100305.27;105685;1262;62182;-77
2023/10/11 12:58:54;;;;;;;;;;;;;;;21.38;61.39;100302.56;105781;1262;61980;-77
2023/10/11 13:01:26;;;;;;;;;;;;;;;21.40;61.30;100303.05;105853;1262;124358;-77
2023/10/11 13:04:05;;;;;;;;;;;;;;;21.44;61.29;100306.34;105722;1260;66276;-77
2023/10/11 13:06:36;;;;;;;;;;;;;;;21.49;61.29;100305.34;105630;1261;125057;-77
2023/10/11 13:09:04;;;;;;;;;;;;;;;21.55;61.22;100307.66;105578;1260;61992;-77
2023/10/11 13:11:31;;;;;;;;;;;;;;;21.62;61.04;100308.93;105728;1260;124590;-77
2023/10/11 13:14:05;;;;;;;;;;;;;;;21.67;61.18;100305.39;105730;1260;75646;-77
2023/10/11 13:16:32;;;;;;;;;;;;;;;21.68;60.93;100299.45;105791;1258;65363;-77
2023/10/11 13:19:00;;;;;;;;;;;;;;;21.66;60.60;100293.44;105627;1260;124950;-77
2023/10/11 13:21:33;;;;;;;;;;;;;;;21.66;60.65;100297.36;105594;1259;62820;-77
2023/10/11 13:24:01;;;;;;;;;;;;;;;21.69;60.60;100299.25;108829;1259;124678;-78
2023/10/11 13:26:32;;;;;;;;;;;;;;;21.74;60.78;100293.58;108860;1259;75618;-78
2023/10/11 13:29:01;;;;;;;;;;;;;;;21.79;60.67;100295.02;106052;1262;124895;-78
2023/10/11 13:31:29;;;;;;;;;;;;;;;21.85;60.63;100292.19;108865;1259;71869;-78
2023/10/11 13:33:56;;;;;;;;;;;;;;;21.91;60.54;100292.89;108373;1260;59637;-79
2023/10/11 13:36:23;;;;;;;;;;;;;;;21.99;60.47;100280.70;105622;1259;124485;-77
2023/10/11 13:38:50;;;;;;;;;;;;;;;22.05;60.32;100276.05;105656;1262;75721;-77